sensor_id;sensor_type;location;lat;lon;timestamp;P1;durP1;ratioP1;P2;durP2;ratioP2
44440;SDS011;30146;52.268;20.944;2023-03-04T00:01:57;33.70;;;17.40;;
44440;SDS011;30146;52.268;20.944;2023-03-04T00:04:28;25.90;;;15.60;;
44440;SDS011;30146;52.268;20.944;2023-03-04T00:06:59;30.50;;;17.00;;
44440;SDS011;30146;52.268;20.944;2023-03-04T00:09:30;28.20;;;15.50;;
44440;SDS011;30146;52.268;20.944;2023-03-04T00:12:01;30.10;;;17.10;;
44440;SDS011;30146;52.268;20.944;2023-03-04T00:14:35;30.00;;;16.00;;
44440;SDS011;30146;52.268;20.944;2023-03-04T00:17:06;31.30;;;17.10;;
44440;SDS011;30146;52.268;20.944;2023-03-04T00:19:37;33.90;;;18.30;;
44440;SDS011;30146;52.268;20.944;2023-03-04T00:22:08;33.40;;;16.90;;
44440;SDS011;30146;52.268;20.944;2023-03-04T00:24:39;29.50;;;16.50;;
44440;SDS011;30146;52.268;20.944;2023-03-04T00:27:10;37.60;;;17.40;;
44440;SDS011;30146;52.268;20.944;2023-03-04T00:29:41;41.60;;;17.80;;
44440;SDS011;30146;52.268;20.944;2023-03-04T00:32:12;29.50;;;16.00;;
44440;SDS011;30146;52.268;20.944;2023-03-04T00:34:45;32.80;;;17.60;;
44440;SDS011;30146;52.268;20.944;2023-03-04T00:37:16;30.10;;;16.20;;
44440;SDS011;30146;52.268;20.944;2023-03-04T00:39:47;38.90;;;17.10;;
44440;SDS011;30146;52.268;20.944;2023-03-04T00:42:44;30.50;;;16.50;;
44440;SDS011;30146;52.268;20.944;2023-03-04T00:45:15;30.00;;;16.20;;
44440;SDS011;30146;52.268;20.944;2023-03-04T00:47:49;34.20;;;16.70;;
44440;SDS011;30146;52.268;20.944;2023-03-04T00:50:20;30.50;;;16.60;;
44440;SDS011;30146;52.268;20.944;2023-03-04T00:52:51;36.30;;;17.70;;
44440;SDS011;30146;52.268;20.944;2023-03-04T00:55:23;38.40;;;17.20;;
44440;SDS011;30146;52.268;20.944;2023-03-04T00:57:55;34.10;;;17.40;;
44440;SDS011;30146;52.268;20.944;2023-03-04T01:00:26;33.50;;;17.70;;
44440;SDS011;30146;52.268;20.944;2023-03-04T01:02:57;39.50;;;17.50;;
44440;SDS011;30146;52.268;20.944;2023-03-04T01:05:28;37.70;;;17.60;;
44440;SDS011;30146;52.268;20.944;2023-03-04T01:08:01;32.20;;;18.80;;
44440;SDS011;30146;52.268;20.944;2023-03-04T01:10:32;36.40;;;19.00;;
44440;SDS011;30146;52.268;20.944;2023-03-04T01:13:03;32.20;;;17.40;;
44440;SDS011;30146;52.268;20.944;2023-03-04T01:15:34;35.20;;;17.10;;
44440;SDS011;30146;52.268;20.944;2023-03-04T01:18:05;31.90;;;17.30;;
44440;SDS011;30146;52.268;20.944;2023-03-04T01:20:37;35.00;;;17.40;;
44440;SDS011;30146;52.268;20.944;2023-03-04T01:23:08;36.00;;;17.60;;
44440;SDS011;30146;52.268;20.944;2023-03-04T01:25:39;36.80;;;17.30;;
44440;SDS011;30146;52.268;20.944;2023-03-04T01:28:10;32.90;;;16.80;;
44440;SDS011;30146;52.268;20.944;2023-03-04T01:30:41;38.50;;;18.20;;
44440;SDS011;30146;52.268;20.944;2023-03-04T01:33:12;34.60;;;17.30;;
44440;SDS011;30146;52.268;20.944;2023-03-04T01:35:43;37.20;;;16.70;;
44440;SDS011;30146;52.268;20.944;2023-03-04T01:38:14;32.60;;;17.80;;
44440;SDS011;30146;52.268;20.944;2023-03-04T01:40:45;34.30;;;18.20;;
44440;SDS011;30146;52.268;20.944;2023-03-04T01:43:18;42.20;;;18.60;;
44440;SDS011;30146;52.268;20.944;2023-03-04T01:45:53;36.50;;;17.90;;
44440;SDS011;30146;52.268;20.944;2023-03-04T01:48:26;37.10;;;19.20;;
44440;SDS011;30146;52.268;20.944;2023-03-04T01:51:01;35.90;;;19.40;;
44440;SDS011;30146;52.268;20.944;2023-03-04T01:53:33;36.30;;;18.90;;
44440;SDS011;30146;52.268;20.944;2023-03-04T01:56:10;38.40;;;19.50;;
44440;SDS011;30146;52.268;20.944;2023-03-04T01:58:44;31.70;;;16.40;;
44440;SDS011;30146;52.268;20.944;2023-03-04T02:01:34;35.90;;;18.00;;
44440;SDS011;30146;52.268;20.944;2023-03-04T02:04:06;33.00;;;17.60;;
44440;SDS011;30146;52.268;20.944;2023-03-04T02:06:39;35.30;;;18.70;;
44440;SDS011;30146;52.268;20.944;2023-03-04T02:09:10;35.90;;;18.60;;
44440;SDS011;30146;52.268;20.944;2023-03-04T02:11:41;36.50;;;18.40;;
44440;SDS011;30146;52.268;20.944;2023-03-04T02:14:14;40.30;;;18.40;;
44440;SDS011;30146;52.268;20.944;2023-03-04T02:16:47;42.20;;;18.10;;
44440;SDS011;30146;52.268;20.944;2023-03-04T02:19:21;31.00;;;16.10;;
44440;SDS011;30146;52.268;20.944;2023-03-04T02:22:05;38.70;;;18.00;;
44440;SDS011;30146;52.268;20.944;2023-03-04T02:24:37;32.70;;;17.00;;
44440;SDS011;30146;52.268;20.944;2023-03-04T02:29:41;33.40;;;16.20;;
44440;SDS011;30146;52.268;20.944;2023-03-04T02:32:12;39.30;;;18.70;;
44440;SDS011;30146;52.268;20.944;2023-03-04T02:34:46;39.60;;;17.40;;
44440;SDS011;30146;52.268;20.944;2023-03-04T02:37:21;37.50;;;17.00;;
44440;SDS011;30146;52.268;20.944;2023-03-04T02:39:53;31.40;;;16.80;;
44440;SDS011;30146;52.268;20.944;2023-03-04T02:42:24;33.90;;;17.80;;
44440;SDS011;30146;52.268;20.944;2023-03-04T02:44:59;32.30;;;17.60;;
44440;SDS011;30146;52.268;20.944;2023-03-04T02:47:30;33.90;;;17.90;;
44440;SDS011;30146;52.268;20.944;2023-03-04T02:50:01;39.30;;;17.10;;
44440;SDS011;30146;52.268;20.944;2023-03-04T02:52:33;32.70;;;16.90;;
44440;SDS011;30146;52.268;20.944;2023-03-04T02:55:05;33.90;;;17.20;;
44440;SDS011;30146;52.268;20.944;2023-03-04T02:57:37;31.80;;;16.90;;
44440;SDS011;30146;52.268;20.944;2023-03-04T03:00:09;34.00;;;17.80;;
44440;SDS011;30146;52.268;20.944;2023-03-04T03:02:42;29.00;;;16.60;;
44440;SDS011;30146;52.268;20.944;2023-03-04T03:05:13;36.70;;;18.30;;
44440;SDS011;30146;52.268;20.944;2023-03-04T03:07:45;35.10;;;19.20;;
44440;SDS011;30146;52.268;20.944;2023-03-04T03:10:16;35.00;;;18.50;;
44440;SDS011;30146;52.268;20.944;2023-03-04T03:12:48;36.50;;;19.10;;
44440;SDS011;30146;52.268;20.944;2023-03-04T03:15:19;32.50;;;17.40;;
44440;SDS011;30146;52.268;20.944;2023-03-04T03:17:51;35.50;;;17.40;;
44440;SDS011;30146;52.268;20.944;2023-03-04T03:20:22;38.80;;;20.20;;
44440;SDS011;30146;52.268;20.944;2023-03-04T03:22:53;40.40;;;18.30;;
44440;SDS011;30146;52.268;20.944;2023-03-04T03:25:24;36.50;;;18.60;;
44440;SDS011;30146;52.268;20.944;2023-03-04T03:27:55;33.90;;;17.60;;
44440;SDS011;30146;52.268;20.944;2023-03-04T03:30:26;39.50;;;19.00;;
44440;SDS011;30146;52.268;20.944;2023-03-04T03:32:58;35.60;;;18.20;;
44440;SDS011;30146;52.268;20.944;2023-03-04T03:35:29;34.80;;;18.00;;
44440;SDS011;30146;52.268;20.944;2023-03-04T03:38:00;37.80;;;18.50;;
44440;SDS011;30146;52.268;20.944;2023-03-04T03:40:31;36.00;;;19.20;;
44440;SDS011;30146;52.268;20.944;2023-03-04T03:43:02;35.40;;;18.80;;
44440;SDS011;30146;52.268;20.944;2023-03-04T03:45:33;39.60;;;19.90;;
44440;SDS011;30146;52.268;20.944;2023-03-04T03:48:04;36.80;;;18.80;;
44440;SDS011;30146;52.268;20.944;2023-03-04T03:50:35;33.80;;;19.00;;
44440;SDS011;30146;52.268;20.944;2023-03-04T03:53:06;34.70;;;18.60;;
44440;SDS011;30146;52.268;20.944;2023-03-04T03:55:37;34.80;;;18.90;;
44440;SDS011;30146;52.268;20.944;2023-03-04T03:58:08;32.30;;;18.50;;
44440;SDS011;30146;52.268;20.944;2023-03-04T04:00:40;36.80;;;19.20;;
44440;SDS011;30146;52.268;20.944;2023-03-04T04:03:13;36.30;;;18.50;;
44440;SDS011;30146;52.268;20.944;2023-03-04T04:05:46;35.50;;;19.20;;
44440;SDS011;30146;52.268;20.944;2023-03-04T04:08:17;38.30;;;20.30;;
44440;SDS011;30146;52.268;20.944;2023-03-04T04:10:48;29.60;;;17.60;;
44440;SDS011;30146;52.268;20.944;2023-03-04T04:13:19;33.10;;;18.70;;
44440;SDS011;30146;52.268;20.944;2023-03-04T04:15:52;39.00;;;17.90;;
44440;SDS011;30146;52.268;20.944;2023-03-04T04:18:23;35.70;;;18.10;;
44440;SDS011;30146;52.268;20.944;2023-03-04T04:20:54;32.20;;;17.50;;
44440;SDS011;30146;52.268;20.944;2023-03-04T04:23:25;35.30;;;18.70;;
44440;SDS011;30146;52.268;20.944;2023-03-04T04:25:57;33.20;;;17.80;;
44440;SDS011;30146;52.268;20.944;2023-03-04T04:28:28;31.50;;;16.70;;
44440;SDS011;30146;52.268;20.944;2023-03-04T04:30:59;29.90;;;16.70;;
44440;SDS011;30146;52.268;20.944;2023-03-04T04:33:30;31.40;;;16.40;;
44440;SDS011;30146;52.268;20.944;2023-03-04T04:36:01;33.90;;;17.40;;
44440;SDS011;30146;52.268;20.944;2023-03-04T04:38:32;31.80;;;17.10;;
44440;SDS011;30146;52.268;20.944;2023-03-04T04:41:05;30.50;;;17.00;;
44440;SDS011;30146;52.268;20.944;2023-03-04T04:43:43;33.80;;;17.50;;
44440;SDS011;30146;52.268;20.944;2023-03-04T04:46:14;30.00;;;17.10;;
44440;SDS011;30146;52.268;20.944;2023-03-04T04:48:46;32.30;;;17.70;;
44440;SDS011;30146;52.268;20.944;2023-03-04T04:51:17;29.10;;;16.30;;
44440;SDS011;30146;52.268;20.944;2023-03-04T04:53:48;28.50;;;16.60;;
44440;SDS011;30146;52.268;20.944;2023-03-04T04:56:20;28.00;;;17.30;;
44440;SDS011;30146;52.268;20.944;2023-03-04T04:58:53;29.00;;;16.10;;
44440;SDS011;30146;52.268;20.944;2023-03-04T05:01:26;30.00;;;17.20;;
44440;SDS011;30146;52.268;20.944;2023-03-04T05:03:58;29.20;;;17.00;;
44440;SDS011;30146;52.268;20.944;2023-03-04T05:06:29;28.50;;;15.50;;
44440;SDS011;30146;52.268;20.944;2023-03-04T05:09:00;25.40;;;14.30;;
44440;SDS011;30146;52.268;20.944;2023-03-04T05:11:31;25.80;;;15.00;;
44440;SDS011;30146;52.268;20.944;2023-03-04T05:14:02;27.20;;;16.70;;
44440;SDS011;30146;52.268;20.944;2023-03-04T05:16:33;28.90;;;16.10;;
44440;SDS011;30146;52.268;20.944;2023-03-04T05:19:05;28.00;;;15.50;;
44440;SDS011;30146;52.268;20.944;2023-03-04T05:21:36;32.80;;;16.30;;
44440;SDS011;30146;52.268;20.944;2023-03-04T05:24:08;28.60;;;16.40;;
44440;SDS011;30146;52.268;20.944;2023-03-04T05:26:39;32.40;;;15.60;;
44440;SDS011;30146;52.268;20.944;2023-03-04T05:29:10;27.90;;;14.80;;
44440;SDS011;30146;52.268;20.944;2023-03-04T05:31:41;36.70;;;16.00;;
44440;SDS011;30146;52.268;20.944;2023-03-04T05:34:12;27.90;;;16.50;;
44440;SDS011;30146;52.268;20.944;2023-03-04T05:36:43;27.60;;;16.10;;
44440;SDS011;30146;52.268;20.944;2023-03-04T05:39:15;35.60;;;17.60;;
44440;SDS011;30146;52.268;20.944;2023-03-04T05:41:46;26.20;;;15.30;;
44440;SDS011;30146;52.268;20.944;2023-03-04T05:44:17;29.70;;;15.60;;
44440;SDS011;30146;52.268;20.944;2023-03-04T05:46:49;29.70;;;16.30;;
44440;SDS011;30146;52.268;20.944;2023-03-04T05:49:20;28.40;;;16.10;;
44440;SDS011;30146;52.268;20.944;2023-03-04T05:51:51;25.70;;;15.50;;
44440;SDS011;30146;52.268;20.944;2023-03-04T05:54:22;25.10;;;15.30;;
44440;SDS011;30146;52.268;20.944;2023-03-04T05:56:53;26.80;;;14.60;;
44440;SDS011;30146;52.268;20.944;2023-03-04T05:59:24;26.00;;;14.90;;
44440;SDS011;30146;52.268;20.944;2023-03-04T06:01:55;32.00;;;15.90;;
44440;SDS011;30146;52.268;20.944;2023-03-04T06:04:26;25.50;;;14.60;;
44440;SDS011;30146;52.268;20.944;2023-03-04T06:06:57;26.40;;;14.50;;
44440;SDS011;30146;52.268;20.944;2023-03-04T06:09:28;29.50;;;15.70;;
44440;SDS011;30146;52.268;20.944;2023-03-04T06:11:59;26.70;;;13.90;;
44440;SDS011;30146;52.268;20.944;2023-03-04T06:14:30;28.40;;;16.30;;
44440;SDS011;30146;52.268;20.944;2023-03-04T06:17:02;25.50;;;15.30;;
44440;SDS011;30146;52.268;20.944;2023-03-04T06:19:33;28.90;;;14.90;;
44440;SDS011;30146;52.268;20.944;2023-03-04T06:22:05;23.90;;;14.10;;
44440;SDS011;30146;52.268;20.944;2023-03-04T06:24:36;24.90;;;14.30;;
44440;SDS011;30146;52.268;20.944;2023-03-04T06:27:07;22.30;;;14.10;;
44440;SDS011;30146;52.268;20.944;2023-03-04T06:29:38;25.30;;;16.00;;
44440;SDS011;30146;52.268;20.944;2023-03-04T06:32:10;25.80;;;14.70;;
44440;SDS011;30146;52.268;20.944;2023-03-04T06:34:41;26.60;;;14.50;;
44440;SDS011;30146;52.268;20.944;2023-03-04T06:37:12;28.30;;;14.10;;
44440;SDS011;30146;52.268;20.944;2023-03-04T06:39:43;30.00;;;14.90;;
44440;SDS011;30146;52.268;20.944;2023-03-04T06:42:14;31.00;;;15.60;;
44440;SDS011;30146;52.268;20.944;2023-03-04T06:44:45;27.60;;;14.20;;
44440;SDS011;30146;52.268;20.944;2023-03-04T06:47:18;28.10;;;15.00;;
44440;SDS011;30146;52.268;20.944;2023-03-04T06:49:49;28.10;;;15.40;;
44440;SDS011;30146;52.268;20.944;2023-03-04T06:52:20;26.90;;;14.00;;
44440;SDS011;30146;52.268;20.944;2023-03-04T06:54:52;23.10;;;14.40;;
44440;SDS011;30146;52.268;20.944;2023-03-04T06:57:23;27.50;;;14.70;;
44440;SDS011;30146;52.268;20.944;2023-03-04T06:59:54;28.70;;;15.70;;
44440;SDS011;30146;52.268;20.944;2023-03-04T07:02:26;26.20;;;15.90;;
44440;SDS011;30146;52.268;20.944;2023-03-04T07:04:57;25.30;;;14.90;;
44440;SDS011;30146;52.268;20.944;2023-03-04T07:07:28;27.90;;;15.20;;
44440;SDS011;30146;52.268;20.944;2023-03-04T07:09:59;25.80;;;14.00;;
44440;SDS011;30146;52.268;20.944;2023-03-04T07:12:30;25.50;;;14.50;;
44440;SDS011;30146;52.268;20.944;2023-03-04T07:15:02;29.40;;;14.60;;
44440;SDS011;30146;52.268;20.944;2023-03-04T07:17:33;24.10;;;14.20;;
44440;SDS011;30146;52.268;20.944;2023-03-04T07:20:05;27.00;;;14.60;;
44440;SDS011;30146;52.268;20.944;2023-03-04T07:22:37;25.90;;;13.60;;
44440;SDS011;30146;52.268;20.944;2023-03-04T07:25:08;27.20;;;15.60;;
44440;SDS011;30146;52.268;20.944;2023-03-04T07:27:39;24.50;;;14.50;;
44440;SDS011;30146;52.268;20.944;2023-03-04T07:30:11;24.00;;;13.20;;
44440;SDS011;30146;52.268;20.944;2023-03-04T07:32:43;25.50;;;13.20;;
44440;SDS011;30146;52.268;20.944;2023-03-04T07:35:14;24.80;;;13.70;;
44440;SDS011;30146;52.268;20.944;2023-03-04T07:37:46;25.60;;;14.50;;
44440;SDS011;30146;52.268;20.944;2023-03-04T07:40:17;23.80;;;13.30;;
44440;SDS011;30146;52.268;20.944;2023-03-04T07:42:49;23.20;;;13.60;;
44440;SDS011;30146;52.268;20.944;2023-03-04T07:45:22;25.10;;;13.80;;
44440;SDS011;30146;52.268;20.944;2023-03-04T07:47:53;22.30;;;13.90;;
44440;SDS011;30146;52.268;20.944;2023-03-04T07:50:25;24.30;;;13.70;;
44440;SDS011;30146;52.268;20.944;2023-03-04T07:52:56;21.30;;;13.80;;
44440;SDS011;30146;52.268;20.944;2023-03-04T07:55:29;25.20;;;12.90;;
44440;SDS011;30146;52.268;20.944;2023-03-04T07:58:01;23.10;;;12.60;;
44440;SDS011;30146;52.268;20.944;2023-03-04T08:00:32;20.70;;;12.20;;
44440;SDS011;30146;52.268;20.944;2023-03-04T08:03:03;22.70;;;13.20;;
44440;SDS011;30146;52.268;20.944;2023-03-04T08:05:34;23.80;;;14.00;;
44440;SDS011;30146;52.268;20.944;2023-03-04T08:08:09;19.00;;;12.50;;
44440;SDS011;30146;52.268;20.944;2023-03-04T08:10:39;22.90;;;12.80;;
44440;SDS011;30146;52.268;20.944;2023-03-04T08:13:13;23.00;;;12.90;;
44440;SDS011;30146;52.268;20.944;2023-03-04T08:15:44;22.80;;;13.00;;
44440;SDS011;30146;52.268;20.944;2023-03-04T08:18:15;19.00;;;12.20;;
44440;SDS011;30146;52.268;20.944;2023-03-04T08:20:48;21.90;;;12.30;;
44440;SDS011;30146;52.268;20.944;2023-03-04T08:23:19;25.10;;;12.90;;
44440;SDS011;30146;52.268;20.944;2023-03-04T08:25:50;22.80;;;12.40;;
44440;SDS011;30146;52.268;20.944;2023-03-04T08:28:22;21.90;;;12.10;;
44440;SDS011;30146;52.268;20.944;2023-03-04T08:30:53;19.90;;;12.50;;
44440;SDS011;30146;52.268;20.944;2023-03-04T08:33:26;22.10;;;11.80;;
44440;SDS011;30146;52.268;20.944;2023-03-04T08:35:59;23.60;;;12.80;;
44440;SDS011;30146;52.268;20.944;2023-03-04T08:41:23;25.40;;;12.10;;
44440;SDS011;30146;52.268;20.944;2023-03-04T08:43:54;22.50;;;12.20;;
44440;SDS011;30146;52.268;20.944;2023-03-04T08:46:25;19.90;;;10.80;;
44440;SDS011;30146;52.268;20.944;2023-03-04T08:48:58;22.20;;;12.50;;
44440;SDS011;30146;52.268;20.944;2023-03-04T08:51:30;23.50;;;12.50;;
44440;SDS011;30146;52.268;20.944;2023-03-04T08:54:03;22.90;;;12.40;;
44440;SDS011;30146;52.268;20.944;2023-03-04T08:56:35;23.60;;;12.60;;
44440;SDS011;30146;52.268;20.944;2023-03-04T08:59:09;23.50;;;11.80;;
44440;SDS011;30146;52.268;20.944;2023-03-04T09:01:40;18.40;;;11.70;;
44440;SDS011;30146;52.268;20.944;2023-03-04T09:04:11;26.30;;;13.30;;
44440;SDS011;30146;52.268;20.944;2023-03-04T09:06:43;22.00;;;11.30;;
44440;SDS011;30146;52.268;20.944;2023-03-04T09:09:15;21.00;;;12.00;;
44440;SDS011;30146;52.268;20.944;2023-03-04T09:11:46;26.10;;;12.30;;
44440;SDS011;30146;52.268;20.944;2023-03-04T09:14:24;20.40;;;11.30;;
44440;SDS011;30146;52.268;20.944;2023-03-04T09:16:56;20.20;;;11.60;;
44440;SDS011;30146;52.268;20.944;2023-03-04T09:19:27;22.40;;;12.50;;
44440;SDS011;30146;52.268;20.944;2023-03-04T09:21:59;27.50;;;11.30;;
44440;SDS011;30146;52.268;20.944;2023-03-04T09:24:30;21.00;;;12.00;;
44440;SDS011;30146;52.268;20.944;2023-03-04T09:27:02;22.20;;;12.00;;
44440;SDS011;30146;52.268;20.944;2023-03-04T09:29:37;22.70;;;11.50;;
44440;SDS011;30146;52.268;20.944;2023-03-04T09:32:09;25.80;;;11.70;;
44440;SDS011;30146;52.268;20.944;2023-03-04T09:34:44;19.00;;;11.20;;
44440;SDS011;30146;52.268;20.944;2023-03-04T09:37:15;19.90;;;11.10;;
44440;SDS011;30146;52.268;20.944;2023-03-04T09:39:46;24.90;;;11.20;;
44440;SDS011;30146;52.268;20.944;2023-03-04T09:42:21;20.40;;;11.80;;
44440;SDS011;30146;52.268;20.944;2023-03-04T09:44:56;25.80;;;11.50;;
44440;SDS011;30146;52.268;20.944;2023-03-04T09:47:28;22.70;;;11.40;;
44440;SDS011;30146;52.268;20.944;2023-03-04T09:50:03;21.80;;;11.40;;
44440;SDS011;30146;52.268;20.944;2023-03-04T09:52:42;30.10;;;11.80;;
44440;SDS011;30146;52.268;20.944;2023-03-04T09:55:22;18.60;;;10.40;;
44440;SDS011;30146;52.268;20.944;2023-03-04T09:57:57;24.00;;;10.50;;
44440;SDS011;30146;52.268;20.944;2023-03-04T10:00:33;21.50;;;11.00;;
44440;SDS011;30146;52.268;20.944;2023-03-04T10:06:46;26.20;;;10.70;;
44440;SDS011;30146;52.268;20.944;2023-03-04T10:09:26;20.30;;;11.20;;
44440;SDS011;30146;52.268;20.944;2023-03-04T10:12:12;22.50;;;10.70;;
44440;SDS011;30146;52.268;20.944;2023-03-04T10:14:49;24.30;;;10.10;;
44440;SDS011;30146;52.268;20.944;2023-03-04T10:17:29;20.20;;;9.80;;
44440;SDS011;30146;52.268;20.944;2023-03-04T10:20:10;18.70;;;9.70;;
44440;SDS011;30146;52.268;20.944;2023-03-04T10:22:55;19.60;;;10.60;;
44440;SDS011;30146;52.268;20.944;2023-03-04T10:25:40;27.70;;;10.60;;
44440;SDS011;30146;52.268;20.944;2023-03-04T10:28:25;26.80;;;11.00;;
44440;SDS011;30146;52.268;20.944;2023-03-04T10:31:01;25.90;;;10.20;;
44440;SDS011;30146;52.268;20.944;2023-03-04T10:33:38;16.90;;;9.60;;
44440;SDS011;30146;52.268;20.944;2023-03-04T10:36:17;18.60;;;10.00;;
44440;SDS011;30146;52.268;20.944;2023-03-04T10:39:05;21.60;;;10.90;;
44440;SDS011;30146;52.268;20.944;2023-03-04T10:41:42;23.70;;;11.20;;
44440;SDS011;30146;52.268;20.944;2023-03-04T10:44:22;22.10;;;11.60;;
44440;SDS011;30146;52.268;20.944;2023-03-04T10:46:54;22.60;;;10.50;;
44440;SDS011;30146;52.268;20.944;2023-03-04T10:49:28;20.80;;;11.00;;
44440;SDS011;30146;52.268;20.944;2023-03-04T10:52:02;22.40;;;10.90;;
44440;SDS011;30146;52.268;20.944;2023-03-04T10:54:46;22.60;;;10.70;;
44440;SDS011;30146;52.268;20.944;2023-03-04T10:57:24;23.40;;;11.20;;
44440;SDS011;30146;52.268;20.944;2023-03-04T11:00:08;20.20;;;10.70;;
44440;SDS011;30146;52.268;20.944;2023-03-04T11:06:11;26.50;;;11.60;;
44440;SDS011;30146;52.268;20.944;2023-03-04T11:09:01;23.30;;;11.70;;
44440;SDS011;30146;52.268;20.944;2023-03-04T11:11:42;21.30;;;10.50;;
44440;SDS011;30146;52.268;20.944;2023-03-04T11:14:22;18.80;;;9.70;;
44440;SDS011;30146;52.268;20.944;2023-03-04T11:17:02;19.30;;;10.90;;
44440;SDS011;30146;52.268;20.944;2023-03-04T11:19:51;19.60;;;12.00;;
44440;SDS011;30146;52.268;20.944;2023-03-04T11:22:26;21.90;;;10.50;;
44440;SDS011;30146;52.268;20.944;2023-03-04T11:25:01;22.50;;;11.50;;
44440;SDS011;30146;52.268;20.944;2023-03-04T11:27:37;27.10;;;10.70;;
44440;SDS011;30146;52.268;20.944;2023-03-04T11:30:25;23.20;;;10.90;;
44440;SDS011;30146;52.268;20.944;2023-03-04T11:33:05;27.50;;;11.60;;
44440;SDS011;30146;52.268;20.944;2023-03-04T11:35:44;19.40;;;10.10;;
44440;SDS011;30146;52.268;20.944;2023-03-04T11:38:28;28.20;;;11.10;;
44440;SDS011;30146;52.268;20.944;2023-03-04T11:41:08;16.70;;;10.00;;
44440;SDS011;30146;52.268;20.944;2023-03-04T11:43:44;22.00;;;9.90;;
44440;SDS011;30146;52.268;20.944;2023-03-04T11:46:32;21.00;;;9.90;;
44440;SDS011;30146;52.268;20.944;2023-03-04T11:52:36;14.30;;;9.40;;
44440;SDS011;30146;52.268;20.944;2023-03-04T11:58:22;19.10;;;9.30;;
44440;SDS011;30146;52.268;20.944;2023-03-04T12:01:25;22.20;;;9.40;;
44440;SDS011;30146;52.268;20.944;2023-03-04T12:04:25;14.90;;;9.50;;
44440;SDS011;30146;52.268;20.944;2023-03-04T12:07:14;24.70;;;9.60;;
44440;SDS011;30146;52.268;20.944;2023-03-04T12:09:54;18.80;;;9.20;;
44440;SDS011;30146;52.268;20.944;2023-03-04T12:12:38;19.00;;;9.20;;
44440;SDS011;30146;52.268;20.944;2023-03-04T12:15:25;20.90;;;9.20;;
44440;SDS011;30146;52.268;20.944;2023-03-04T12:18:12;15.60;;;8.50;;
44440;SDS011;30146;52.268;20.944;2023-03-04T12:21:26;19.20;;;10.20;;
44440;SDS011;30146;52.268;20.944;2023-03-04T12:24:23;18.90;;;10.30;;
44440;SDS011;30146;52.268;20.944;2023-03-04T12:27:04;17.80;;;10.60;;
44440;SDS011;30146;52.268;20.944;2023-03-04T12:29:44;17.60;;;9.90;;
44440;SDS011;30146;52.268;20.944;2023-03-04T12:32:26;24.80;;;10.40;;
44440;SDS011;30146;52.268;20.944;2023-03-04T12:35:12;20.40;;;9.30;;
44440;SDS011;30146;52.268;20.944;2023-03-04T12:37:54;16.60;;;9.60;;
44440;SDS011;30146;52.268;20.944;2023-03-04T12:40:36;15.80;;;9.00;;
44440;SDS011;30146;52.268;20.944;2023-03-04T12:43:18;18.00;;;9.10;;
44440;SDS011;30146;52.268;20.944;2023-03-04T12:46:05;15.50;;;8.80;;
44440;SDS011;30146;52.268;20.944;2023-03-04T12:48:58;14.40;;;7.80;;
44440;SDS011;30146;52.268;20.944;2023-03-04T12:51:49;19.90;;;8.70;;
44440;SDS011;30146;52.268;20.944;2023-03-04T12:54:29;15.50;;;8.30;;
44440;SDS011;30146;52.268;20.944;2023-03-04T12:57:03;12.60;;;8.10;;
44440;SDS011;30146;52.268;20.944;2023-03-04T12:59:41;14.50;;;8.00;;
44440;SDS011;30146;52.268;20.944;2023-03-04T13:02:24;19.10;;;8.00;;
44440;SDS011;30146;52.268;20.944;2023-03-04T13:05:06;15.80;;;8.50;;
44440;SDS011;30146;52.268;20.944;2023-03-04T13:08:10;13.00;;;7.90;;
44440;SDS011;30146;52.268;20.944;2023-03-04T13:10:50;16.00;;;7.60;;
44440;SDS011;30146;52.268;20.944;2023-03-04T13:16:29;12.90;;;8.10;;
44440;SDS011;30146;52.268;20.944;2023-03-04T13:19:04;11.30;;;7.20;;
44440;SDS011;30146;52.268;20.944;2023-03-04T13:22:35;14.00;;;7.90;;
44440;SDS011;30146;52.268;20.944;2023-03-04T13:28:15;10.60;;;6.70;;
44440;SDS011;30146;52.268;20.944;2023-03-04T13:33:49;10.40;;;6.10;;
44440;SDS011;30146;52.268;20.944;2023-03-04T13:36:27;9.10;;;4.40;;
44440;SDS011;30146;52.268;20.944;2023-03-04T13:39:28;5.20;;;3.30;;
44440;SDS011;30146;52.268;20.944;2023-03-04T13:42:04;3.30;;;2.70;;
44440;SDS011;30146;52.268;20.944;2023-03-04T13:48:19;5.30;;;3.00;;
44440;SDS011;30146;52.268;20.944;2023-03-04T13:50:55;6.70;;;2.90;;
44440;SDS011;30146;52.268;20.944;2023-03-04T13:53:30;5.80;;;2.80;;
44440;SDS011;30146;52.268;20.944;2023-03-04T13:56:09;4.70;;;2.70;;
44440;SDS011;30146;52.268;20.944;2023-03-04T14:01:59;5.60;;;2.80;;
44440;SDS011;30146;52.268;20.944;2023-03-04T14:04:33;5.80;;;2.70;;
44440;SDS011;30146;52.268;20.944;2023-03-04T14:07:17;3.20;;;2.00;;
44440;SDS011;30146;52.268;20.944;2023-03-04T14:09:59;7.80;;;3.00;;
44440;SDS011;30146;52.268;20.944;2023-03-04T14:12:35;4.30;;;3.10;;
44440;SDS011;30146;52.268;20.944;2023-03-04T14:15:18;4.90;;;2.70;;
44440;SDS011;30146;52.268;20.944;2023-03-04T14:17:53;9.30;;;3.10;;
44440;SDS011;30146;52.268;20.944;2023-03-04T14:20:27;6.60;;;2.90;;
44440;SDS011;30146;52.268;20.944;2023-03-04T14:23:00;6.80;;;3.70;;
44440;SDS011;30146;52.268;20.944;2023-03-04T14:25:34;8.00;;;3.30;;
44440;SDS011;30146;52.268;20.944;2023-03-04T14:28:08;7.80;;;3.90;;
44440;SDS011;30146;52.268;20.944;2023-03-04T14:30:49;7.70;;;3.40;;
44440;SDS011;30146;52.268;20.944;2023-03-04T14:33:25;5.00;;;3.30;;
44440;SDS011;30146;52.268;20.944;2023-03-04T14:35:59;5.30;;;3.10;;
44440;SDS011;30146;52.268;20.944;2023-03-04T14:38:31;5.60;;;3.00;;
44440;SDS011;30146;52.268;20.944;2023-03-04T14:41:05;7.70;;;3.80;;
44440;SDS011;30146;52.268;20.944;2023-03-04T14:43:40;7.70;;;3.30;;
44440;SDS011;30146;52.268;20.944;2023-03-04T14:46:28;8.30;;;3.50;;
44440;SDS011;30146;52.268;20.944;2023-03-04T14:49:24;7.60;;;2.90;;
44440;SDS011;30146;52.268;20.944;2023-03-04T14:51:56;4.60;;;2.70;;
44440;SDS011;30146;52.268;20.944;2023-03-04T14:54:29;8.30;;;3.00;;
44440;SDS011;30146;52.268;20.944;2023-03-04T14:57:19;6.10;;;2.50;;
44440;SDS011;30146;52.268;20.944;2023-03-04T14:59:53;6.00;;;2.90;;
44440;SDS011;30146;52.268;20.944;2023-03-04T15:02:25;5.00;;;2.40;;
44440;SDS011;30146;52.268;20.944;2023-03-04T15:05:00;4.40;;;2.50;;
44440;SDS011;30146;52.268;20.944;2023-03-04T15:07:44;6.90;;;3.10;;
44440;SDS011;30146;52.268;20.944;2023-03-04T15:10:22;5.00;;;3.00;;
44440;SDS011;30146;52.268;20.944;2023-03-04T15:13:12;3.90;;;2.40;;
44440;SDS011;30146;52.268;20.944;2023-03-04T15:15:46;5.30;;;2.80;;
44440;SDS011;30146;52.268;20.944;2023-03-04T15:18:20;6.70;;;2.70;;
44440;SDS011;30146;52.268;20.944;2023-03-04T15:20:57;3.90;;;2.30;;
44440;SDS011;30146;52.268;20.944;2023-03-04T15:23:31;3.70;;;2.30;;
44440;SDS011;30146;52.268;20.944;2023-03-04T15:26:02;7.00;;;2.80;;
44440;SDS011;30146;52.268;20.944;2023-03-04T15:31:15;3.20;;;2.10;;
44440;SDS011;30146;52.268;20.944;2023-03-04T15:33:47;3.10;;;2.20;;
44440;SDS011;30146;52.268;20.944;2023-03-04T15:36:20;3.70;;;2.00;;